VRN weather

Verona Villafranca Airport
Verona, Veneto, Italy

Public forecast

Using degrees Celsius for public forecast. Weather courtesy of forecast.io.

METAR (pilot weather report)

Retrieved 2019/07/17 14:20 UTC (0 seconds ago):

LIPX 171420Z 21008KT 150V270 CAVOK 31/11 Q1011

TAF (pilot weather forecast)

Forecast is more than 12 hours old.

Retrieved 2014/04/22 15:24 UTC (5 years ago):

TAF TAF LIPX 221400Z 2215/2324 VRB05KT 9999 SCT030 SCT070 TEMPO 2215/2218 SCT025CB SCT080 PROB30 TEMPO 2215/2218 TS